sensor_id;sensor_type;location;lat;lon;timestamp;temperature;humidity
19906;DHT22;10115;50.906;4.438;2023-04-06T00:01:07;8.10;99.90
19906;DHT22;10115;50.906;4.438;2023-04-06T00:03:33;8.10;99.90
19906;DHT22;10115;50.906;4.438;2023-04-06T00:05:59;8.10;99.90
19906;DHT22;10115;50.906;4.438;2023-04-06T00:08:26;8.10;99.90
19906;DHT22;10115;50.906;4.438;2023-04-06T00:10:52;8.40;99.90
19906;DHT22;10115;50.906;4.438;2023-04-06T00:13:17;8.40;99.90
19906;DHT22;10115;50.906;4.438;2023-04-06T00:15:43;8.50;99.90
19906;DHT22;10115;50.906;4.438;2023-04-06T00:18:10;8.40;99.90
19906;DHT22;10115;50.906;4.438;2023-04-06T00:20:36;8.30;99.90
19906;DHT22;10115;50.906;4.438;2023-04-06T00:23:04;8.10;99.90
19906;DHT22;10115;50.906;4.438;2023-04-06T00:25:30;8.10;99.90
19906;DHT22;10115;50.906;4.438;2023-04-06T00:27:56;8.40;99.90
19906;DHT22;10115;50.906;4.438;2023-04-06T00:30:22;8.50;99.90
19906;DHT22;10115;50.906;4.438;2023-04-06T00:32:47;8.30;99.90
19906;DHT22;10115;50.906;4.438;2023-04-06T00:35:13;8.20;99.90
19906;DHT22;10115;50.906;4.438;2023-04-06T00:37:40;8.30;99.90
19906;DHT22;10115;50.906;4.438;2023-04-06T00:40:06;8.10;99.90
19906;DHT22;10115;50.906;4.438;2023-04-06T00:42:32;8.00;99.90
19906;DHT22;10115;50.906;4.438;2023-04-06T00:44:59;8.10;99.90
19906;DHT22;10115;50.906;4.438;2023-04-06T00:47:26;8.00;99.90
19906;DHT22;10115;50.906;4.438;2023-04-06T00:49:53;8.00;99.90
19906;DHT22;10115;50.906;4.438;2023-04-06T00:52:19;8.10;99.90
19906;DHT22;10115;50.906;4.438;2023-04-06T00:54:45;8.10;99.90
19906;DHT22;10115;50.906;4.438;2023-04-06T00:57:14;8.00;99.90
19906;DHT22;10115;50.906;4.438;2023-04-06T00:59:40;8.10;99.90
19906;DHT22;10115;50.906;4.438;2023-04-06T01:02:06;8.00;99.90
19906;DHT22;10115;50.906;4.438;2023-04-06T01:04:32;8.00;99.90
19906;DHT22;10115;50.906;4.438;2023-04-06T01:06:58;8.00;99.90
19906;DHT22;10115;50.906;4.438;2023-04-06T01:09:24;8.00;99.90
19906;DHT22;10115;50.906;4.438;2023-04-06T01:11:50;8.10;99.90
19906;DHT22;10115;50.906;4.438;2023-04-06T01:14:15;8.00;99.90
19906;DHT22;10115;50.906;4.438;2023-04-06T01:16:42;8.10;99.90
19906;DHT22;10115;50.906;4.438;2023-04-06T01:19:11;8.10;99.90
19906;DHT22;10115;50.906;4.438;2023-04-06T01:21:38;8.30;99.90
19906;DHT22;10115;50.906;4.438;2023-04-06T01:24:04;8.20;99.90
19906;DHT22;10115;50.906;4.438;2023-04-06T01:26:31;8.20;99.90
19906;DHT22;10115;50.906;4.438;2023-04-06T01:28:57;8.20;99.90
19906;DHT22;10115;50.906;4.438;2023-04-06T01:31:23;8.30;99.90
19906;DHT22;10115;50.906;4.438;2023-04-06T01:33:49;8.10;99.90
19906;DHT22;10115;50.906;4.438;2023-04-06T01:36:15;8.20;99.90
19906;DHT22;10115;50.906;4.438;2023-04-06T01:38:40;8.20;99.90
19906;DHT22;10115;50.906;4.438;2023-04-06T01:41:07;8.40;99.90
19906;DHT22;10115;50.906;4.438;2023-04-06T01:43:33;8.20;99.90
19906;DHT22;10115;50.906;4.438;2023-04-06T01:45:59;8.20;99.90
19906;DHT22;10115;50.906;4.438;2023-04-06T01:48:25;8.10;99.90
19906;DHT22;10115;50.906;4.438;2023-04-06T01:50:51;8.10;99.90
19906;DHT22;10115;50.906;4.438;2023-04-06T01:53:16;8.00;99.90
19906;DHT22;10115;50.906;4.438;2023-04-06T01:55:42;7.90;99.90
19906;DHT22;10115;50.906;4.438;2023-04-06T01:58:08;7.90;99.90
19906;DHT22;10115;50.906;4.438;2023-04-06T02:00:33;7.90;99.90
19906;DHT22;10115;50.906;4.438;2023-04-06T02:02:59;7.90;99.90
19906;DHT22;10115;50.906;4.438;2023-04-06T02:05:26;8.10;99.90
19906;DHT22;10115;50.906;4.438;2023-04-06T02:07:51;8.30;99.90
19906;DHT22;10115;50.906;4.438;2023-04-06T02:10:17;8.20;99.90
19906;DHT22;10115;50.906;4.438;2023-04-06T02:12:43;8.20;99.90
19906;DHT22;10115;50.906;4.438;2023-04-06T02:15:09;8.10;99.90
19906;DHT22;10115;50.906;4.438;2023-04-06T02:17:35;8.20;99.90
19906;DHT22;10115;50.906;4.438;2023-04-06T02:20:01;8.40;99.90
19906;DHT22;10115;50.906;4.438;2023-04-06T02:22:26;8.30;99.90
19906;DHT22;10115;50.906;4.438;2023-04-06T02:24:52;8.20;99.90
19906;DHT22;10115;50.906;4.438;2023-04-06T02:27:18;8.40;99.90
19906;DHT22;10115;50.906;4.438;2023-04-06T02:29:43;8.20;99.90
19906;DHT22;10115;50.906;4.438;2023-04-06T02:32:09;8.10;99.90
19906;DHT22;10115;50.906;4.438;2023-04-06T02:34:35;8.00;99.90
19906;DHT22;10115;50.906;4.438;2023-04-06T02:37:00;8.10;99.90
19906;DHT22;10115;50.906;4.438;2023-04-06T02:39:26;8.10;99.90
19906;DHT22;10115;50.906;4.438;2023-04-06T02:41:52;8.00;99.90
19906;DHT22;10115;50.906;4.438;2023-04-06T02:44:18;8.00;99.90
19906;DHT22;10115;50.906;4.438;2023-04-06T02:46:44;7.80;99.90
19906;DHT22;10115;50.906;4.438;2023-04-06T02:49:10;7.70;99.90
19906;DHT22;10115;50.906;4.438;2023-04-06T02:51:35;7.70;99.90
19906;DHT22;10115;50.906;4.438;2023-04-06T02:54:01;7.60;99.90
19906;DHT22;10115;50.906;4.438;2023-04-06T02:56:26;7.70;99.90
19906;DHT22;10115;50.906;4.438;2023-04-06T02:58:52;7.80;99.90
19906;DHT22;10115;50.906;4.438;2023-04-06T03:01:18;7.80;99.90
19906;DHT22;10115;50.906;4.438;2023-04-06T03:03:43;7.70;99.90
19906;DHT22;10115;50.906;4.438;2023-04-06T03:06:09;7.60;99.90
19906;DHT22;10115;50.906;4.438;2023-04-06T03:08:35;7.40;99.90
19906;DHT22;10115;50.906;4.438;2023-04-06T03:11:01;7.50;99.90
19906;DHT22;10115;50.906;4.438;2023-04-06T03:13:26;7.40;99.90
19906;DHT22;10115;50.906;4.438;2023-04-06T03:15:52;7.30;99.90
19906;DHT22;10115;50.906;4.438;2023-04-06T03:18:22;7.20;99.90
19906;DHT22;10115;50.906;4.438;2023-04-06T03:20:48;7.00;99.90
19906;DHT22;10115;50.906;4.438;2023-04-06T03:23:14;6.90;99.90
19906;DHT22;10115;50.906;4.438;2023-04-06T03:25:40;7.00;99.90
19906;DHT22;10115;50.906;4.438;2023-04-06T03:28:05;7.00;99.90
19906;DHT22;10115;50.906;4.438;2023-04-06T03:30:31;6.90;99.90
19906;DHT22;10115;50.906;4.438;2023-04-06T03:32:57;6.90;99.90
19906;DHT22;10115;50.906;4.438;2023-04-06T03:35:22;6.90;99.90
19906;DHT22;10115;50.906;4.438;2023-04-06T03:37:48;6.80;99.90
19906;DHT22;10115;50.906;4.438;2023-04-06T03:40:14;6.80;99.90
19906;DHT22;10115;50.906;4.438;2023-04-06T03:42:39;6.90;99.90
19906;DHT22;10115;50.906;4.438;2023-04-06T03:45:05;6.80;99.90
19906;DHT22;10115;50.906;4.438;2023-04-06T03:47:31;6.70;99.90
19906;DHT22;10115;50.906;4.438;2023-04-06T03:49:57;6.60;99.90
19906;DHT22;10115;50.906;4.438;2023-04-06T03:52:22;6.60;99.90
19906;DHT22;10115;50.906;4.438;2023-04-06T03:54:48;6.70;99.90
19906;DHT22;10115;50.906;4.438;2023-04-06T03:57:15;6.90;99.90
19906;DHT22;10115;50.906;4.438;2023-04-06T03:59:40;7.30;99.90
19906;DHT22;10115;50.906;4.438;2023-04-06T04:02:06;7.10;99.90
19906;DHT22;10115;50.906;4.438;2023-04-06T04:04:32;7.00;99.90
19906;DHT22;10115;50.906;4.438;2023-04-06T04:06:57;7.10;99.90
19906;DHT22;10115;50.906;4.438;2023-04-06T04:09:23;7.20;99.90
19906;DHT22;10115;50.906;4.438;2023-04-06T04:11:49;7.10;99.90
19906;DHT22;10115;50.906;4.438;2023-04-06T04:14:14;7.20;99.90
19906;DHT22;10115;50.906;4.438;2023-04-06T04:16:40;7.20;99.90
19906;DHT22;10115;50.906;4.438;2023-04-06T04:19:07;7.40;99.90
19906;DHT22;10115;50.906;4.438;2023-04-06T04:21:33;7.70;99.90
19906;DHT22;10115;50.906;4.438;2023-04-06T04:23:58;7.70;99.90
19906;DHT22;10115;50.906;4.438;2023-04-06T04:26:24;7.90;99.90
19906;DHT22;10115;50.906;4.438;2023-04-06T04:28:50;7.80;99.90
19906;DHT22;10115;50.906;4.438;2023-04-06T04:31:15;7.70;99.90
19906;DHT22;10115;50.906;4.438;2023-04-06T04:33:43;7.60;99.90
19906;DHT22;10115;50.906;4.438;2023-04-06T04:36:09;7.80;99.90
19906;DHT22;10115;50.906;4.438;2023-04-06T04:38:35;7.60;99.90
19906;DHT22;10115;50.906;4.438;2023-04-06T04:41:01;7.60;99.90
19906;DHT22;10115;50.906;4.438;2023-04-06T04:43:27;7.60;99.90
19906;DHT22;10115;50.906;4.438;2023-04-06T04:45:52;7.60;99.90
19906;DHT22;10115;50.906;4.438;2023-04-06T04:48:19;7.60;99.90
19906;DHT22;10115;50.906;4.438;2023-04-06T04:50:44;7.80;99.90
19906;DHT22;10115;50.906;4.438;2023-04-06T04:53:10;7.80;99.90
19906;DHT22;10115;50.906;4.438;2023-04-06T04:55:36;7.90;99.90
19906;DHT22;10115;50.906;4.438;2023-04-06T04:58:01;7.90;99.90
19906;DHT22;10115;50.906;4.438;2023-04-06T05:00:27;7.90;99.90
19906;DHT22;10115;50.906;4.438;2023-04-06T05:02:53;8.00;99.90
19906;DHT22;10115;50.906;4.438;2023-04-06T05:05:19;8.10;99.90
19906;DHT22;10115;50.906;4.438;2023-04-06T05:07:45;8.10;99.90
19906;DHT22;10115;50.906;4.438;2023-04-06T05:10:11;8.10;99.90
19906;DHT22;10115;50.906;4.438;2023-04-06T05:12:37;8.10;99.90
19906;DHT22;10115;50.906;4.438;2023-04-06T05:15:03;8.10;99.90
19906;DHT22;10115;50.906;4.438;2023-04-06T05:17:29;8.10;99.90
19906;DHT22;10115;50.906;4.438;2023-04-06T05:19:55;8.10;99.90
19906;DHT22;10115;50.906;4.438;2023-04-06T05:22:20;8.10;99.90
19906;DHT22;10115;50.906;4.438;2023-04-06T05:24:46;8.10;99.90
19906;DHT22;10115;50.906;4.438;2023-04-06T05:27:12;8.20;99.90
19906;DHT22;10115;50.906;4.438;2023-04-06T05:29:37;8.20;99.90
19906;DHT22;10115;50.906;4.438;2023-04-06T05:32:03;8.10;99.90
19906;DHT22;10115;50.906;4.438;2023-04-06T05:34:29;8.10;99.90
19906;DHT22;10115;50.906;4.438;2023-04-06T05:36:55;8.00;99.90
19906;DHT22;10115;50.906;4.438;2023-04-06T05:39:21;8.00;99.90
19906;DHT22;10115;50.906;4.438;2023-04-06T05:41:47;8.00;99.90
19906;DHT22;10115;50.906;4.438;2023-04-06T05:44:13;8.00;99.90
19906;DHT22;10115;50.906;4.438;2023-04-06T05:46:39;8.00;99.90
19906;DHT22;10115;50.906;4.438;2023-04-06T05:49:05;8.00;99.90
19906;DHT22;10115;50.906;4.438;2023-04-06T05:51:30;8.00;99.90
19906;DHT22;10115;50.906;4.438;2023-04-06T05:53:56;8.00;99.90
19906;DHT22;10115;50.906;4.438;2023-04-06T05:56:23;8.00;99.90
19906;DHT22;10115;50.906;4.438;2023-04-06T05:58:49;8.00;99.90
19906;DHT22;10115;50.906;4.438;2023-04-06T06:01:14;8.00;99.90
19906;DHT22;10115;50.906;4.438;2023-04-06T06:03:41;8.00;99.90
19906;DHT22;10115;50.906;4.438;2023-04-06T06:06:06;8.00;99.90
19906;DHT22;10115;50.906;4.438;2023-04-06T06:08:32;8.00;99.90
19906;DHT22;10115;50.906;4.438;2023-04-06T06:10:58;8.00;99.90
19906;DHT22;10115;50.906;4.438;2023-04-06T06:13:23;8.00;99.90
19906;DHT22;10115;50.906;4.438;2023-04-06T06:15:49;8.00;99.90
19906;DHT22;10115;50.906;4.438;2023-04-06T06:18:16;8.00;99.90
19906;DHT22;10115;50.906;4.438;2023-04-06T06:20:41;7.90;99.90
19906;DHT22;10115;50.906;4.438;2023-04-06T06:23:07;8.00;99.90
19906;DHT22;10115;50.906;4.438;2023-04-06T06:25:32;8.00;99.90
19906;DHT22;10115;50.906;4.438;2023-04-06T06:27:59;8.10;99.90
19906;DHT22;10115;50.906;4.438;2023-04-06T06:30:25;8.10;99.90
19906;DHT22;10115;50.906;4.438;2023-04-06T06:32:51;8.10;99.90
19906;DHT22;10115;50.906;4.438;2023-04-06T06:35:17;8.00;99.90
19906;DHT22;10115;50.906;4.438;2023-04-06T06:37:43;8.10;99.90
19906;DHT22;10115;50.906;4.438;2023-04-06T06:40:09;8.00;99.90
19906;DHT22;10115;50.906;4.438;2023-04-06T06:42:38;7.90;99.90
19906;DHT22;10115;50.906;4.438;2023-04-06T06:45:06;7.90;99.90
19906;DHT22;10115;50.906;4.438;2023-04-06T06:47:32;7.80;99.90
19906;DHT22;10115;50.906;4.438;2023-04-06T06:49:58;7.80;99.90
19906;DHT22;10115;50.906;4.438;2023-04-06T06:52:24;7.80;99.90
19906;DHT22;10115;50.906;4.438;2023-04-06T06:54:49;7.70;99.90
19906;DHT22;10115;50.906;4.438;2023-04-06T06:57:15;7.70;99.90
19906;DHT22;10115;50.906;4.438;2023-04-06T06:59:41;7.80;99.90
19906;DHT22;10115;50.906;4.438;2023-04-06T07:02:06;7.80;99.90
19906;DHT22;10115;50.906;4.438;2023-04-06T07:04:32;7.80;99.90
19906;DHT22;10115;50.906;4.438;2023-04-06T07:06:58;7.80;99.90
19906;DHT22;10115;50.906;4.438;2023-04-06T07:09:23;7.80;99.90
19906;DHT22;10115;50.906;4.438;2023-04-06T07:11:49;7.80;99.90
19906;DHT22;10115;50.906;4.438;2023-04-06T07:14:16;7.80;99.90
19906;DHT22;10115;50.906;4.438;2023-04-06T07:16:41;7.90;99.90
19906;DHT22;10115;50.906;4.438;2023-04-06T07:19:07;7.90;99.90
19906;DHT22;10115;50.906;4.438;2023-04-06T07:21:34;7.90;99.90
19906;DHT22;10115;50.906;4.438;2023-04-06T07:24:00;8.00;99.90
19906;DHT22;10115;50.906;4.438;2023-04-06T07:26:27;8.20;99.90
19906;DHT22;10115;50.906;4.438;2023-04-06T07:28:52;8.30;99.90
19906;DHT22;10115;50.906;4.438;2023-04-06T07:31:18;8.30;99.90
19906;DHT22;10115;50.906;4.438;2023-04-06T07:33:44;8.70;99.90
19906;DHT22;10115;50.906;4.438;2023-04-06T07:36:10;8.60;99.90
19906;DHT22;10115;50.906;4.438;2023-04-06T07:38:36;8.60;99.90
19906;DHT22;10115;50.906;4.438;2023-04-06T07:41:02;8.90;99.90
19906;DHT22;10115;50.906;4.438;2023-04-06T07:43:29;8.90;99.90
19906;DHT22;10115;50.906;4.438;2023-04-06T07:45:56;9.00;99.90
19906;DHT22;10115;50.906;4.438;2023-04-06T07:48:23;9.00;99.90
19906;DHT22;10115;50.906;4.438;2023-04-06T07:50:49;8.90;99.90
19906;DHT22;10115;50.906;4.438;2023-04-06T07:53:15;8.80;99.90
19906;DHT22;10115;50.906;4.438;2023-04-06T07:55:40;9.00;99.90
19906;DHT22;10115;50.906;4.438;2023-04-06T07:58:06;9.10;99.90
19906;DHT22;10115;50.906;4.438;2023-04-06T08:00:32;9.20;99.90
19906;DHT22;10115;50.906;4.438;2023-04-06T08:02:58;9.20;99.90
19906;DHT22;10115;50.906;4.438;2023-04-06T08:05:23;9.20;99.90
19906;DHT22;10115;50.906;4.438;2023-04-06T08:07:49;9.00;99.90
19906;DHT22;10115;50.906;4.438;2023-04-06T08:10:15;9.00;99.90
19906;DHT22;10115;50.906;4.438;2023-04-06T08:12:41;9.00;99.90
19906;DHT22;10115;50.906;4.438;2023-04-06T08:15:06;9.00;99.90
19906;DHT22;10115;50.906;4.438;2023-04-06T08:17:32;9.20;99.90
19906;DHT22;10115;50.906;4.438;2023-04-06T08:19:59;9.30;99.90
19906;DHT22;10115;50.906;4.438;2023-04-06T08:22:25;9.00;99.90
19906;DHT22;10115;50.906;4.438;2023-04-06T08:24:51;9.00;99.90
19906;DHT22;10115;50.906;4.438;2023-04-06T08:27:17;8.70;99.90
19906;DHT22;10115;50.906;4.438;2023-04-06T08:29:43;8.80;99.90
19906;DHT22;10115;50.906;4.438;2023-04-06T08:32:08;8.80;99.90
19906;DHT22;10115;50.906;4.438;2023-04-06T08:34:34;8.80;99.90
19906;DHT22;10115;50.906;4.438;2023-04-06T08:37:00;8.50;99.90
19906;DHT22;10115;50.906;4.438;2023-04-06T08:39:26;8.40;99.90
19906;DHT22;10115;50.906;4.438;2023-04-06T08:41:53;8.50;99.90
19906;DHT22;10115;50.906;4.438;2023-04-06T08:44:22;8.60;99.90
19906;DHT22;10115;50.906;4.438;2023-04-06T08:46:48;8.40;99.90
19906;DHT22;10115;50.906;4.438;2023-04-06T08:49:16;8.50;99.90
19906;DHT22;10115;50.906;4.438;2023-04-06T08:51:42;8.80;99.90
19906;DHT22;10115;50.906;4.438;2023-04-06T08:54:07;9.00;99.90
19906;DHT22;10115;50.906;4.438;2023-04-06T08:56:36;8.70;99.90
19906;DHT22;10115;50.906;4.438;2023-04-06T08:59:03;8.70;99.90
19906;DHT22;10115;50.906;4.438;2023-04-06T09:01:29;8.70;99.90
19906;DHT22;10115;50.906;4.438;2023-04-06T09:03:58;8.70;99.90
19906;DHT22;10115;50.906;4.438;2023-04-06T09:06:26;9.00;99.90
19906;DHT22;10115;50.906;4.438;2023-04-06T09:08:52;9.00;99.90
19906;DHT22;10115;50.906;4.438;2023-04-06T09:11:18;9.00;99.90
19906;DHT22;10115;50.906;4.438;2023-04-06T09:13:48;8.80;99.90
19906;DHT22;10115;50.906;4.438;2023-04-06T09:16:14;8.80;99.90
19906;DHT22;10115;50.906;4.438;2023-04-06T09:18:41;8.90;99.90
19906;DHT22;10115;50.906;4.438;2023-04-06T09:21:08;8.80;99.90
19906;DHT22;10115;50.906;4.438;2023-04-06T09:23:34;8.90;99.90
19906;DHT22;10115;50.906;4.438;2023-04-06T09:26:11;9.00;99.90
19906;DHT22;10115;50.906;4.438;2023-04-06T09:28:51;9.10;99.90
19906;DHT22;10115;50.906;4.438;2023-04-06T09:31:30;9.10;99.90
19906;DHT22;10115;50.906;4.438;2023-04-06T09:33:58;9.20;99.90
19906;DHT22;10115;50.906;4.438;2023-04-06T09:36:32;9.20;99.90
19906;DHT22;10115;50.906;4.438;2023-04-06T09:39:02;9.00;99.90
19906;DHT22;10115;50.906;4.438;2023-04-06T09:41:30;9.00;99.90
19906;DHT22;10115;50.906;4.438;2023-04-06T09:46:31;8.90;99.90
19906;DHT22;10115;50.906;4.438;2023-04-06T09:48:58;9.00;99.90
19906;DHT22;10115;50.906;4.438;2023-04-06T09:51:26;9.00;99.90
19906;DHT22;10115;50.906;4.438;2023-04-06T09:53:55;8.90;99.90
19906;DHT22;10115;50.906;4.438;2023-04-06T09:56:28;8.80;99.90
19906;DHT22;10115;50.906;4.438;2023-04-06T09:58:57;8.80;99.90
19906;DHT22;10115;50.906;4.438;2023-04-06T10:01:28;8.70;99.90
19906;DHT22;10115;50.906;4.438;2023-04-06T10:06:33;8.70;99.90
19906;DHT22;10115;50.906;4.438;2023-04-06T10:09:02;8.60;99.90
19906;DHT22;10115;50.906;4.438;2023-04-06T10:11:30;8.60;99.90
19906;DHT22;10115;50.906;4.438;2023-04-06T10:13:56;8.60;99.90
19906;DHT22;10115;50.906;4.438;2023-04-06T10:16:22;8.60;99.90
19906;DHT22;10115;50.906;4.438;2023-04-06T10:18:53;8.70;99.90
19906;DHT22;10115;50.906;4.438;2023-04-06T10:21:23;8.70;99.90
19906;DHT22;10115;50.906;4.438;2023-04-06T10:23:54;8.70;99.90
19906;DHT22;10115;50.906;4.438;2023-04-06T10:26:21;8.90;99.90
19906;DHT22;10115;50.906;4.438;2023-04-06T10:28:48;8.90;99.90
19906;DHT22;10115;50.906;4.438;2023-04-06T10:31:14;8.90;99.90
19906;DHT22;10115;50.906;4.438;2023-04-06T10:33:40;9.10;99.90
19906;DHT22;10115;50.906;4.438;2023-04-06T10:36:13;9.00;99.90
19906;DHT22;10115;50.906;4.438;2023-04-06T10:38:41;9.00;99.90
19906;DHT22;10115;50.906;4.438;2023-04-06T10:41:08;8.90;99.90
19906;DHT22;10115;50.906;4.438;2023-04-06T10:43:36;8.70;99.90
19906;DHT22;10115;50.906;4.438;2023-04-06T10:46:03;9.00;99.90
19906;DHT22;10115;50.906;4.438;2023-04-06T10:48:47;9.10;99.90
19906;DHT22;10115;50.906;4.438;2023-04-06T10:51:14;9.20;99.90
19906;DHT22;10115;50.906;4.438;2023-04-06T10:53:47;9.10;99.90
19906;DHT22;10115;50.906;4.438;2023-04-06T10:56:15;8.90;99.90
19906;DHT22;10115;50.906;4.438;2023-04-06T10:58:48;9.00;99.90
19906;DHT22;10115;50.906;4.438;2023-04-06T11:01:16;8.70;99.90
19906;DHT22;10115;50.906;4.438;2023-04-06T11:03:43;8.80;99.90
19906;DHT22;10115;50.906;4.438;2023-04-06T11:06:09;8.80;99.90
19906;DHT22;10115;50.906;4.438;2023-04-06T11:08:35;9.00;99.90
19906;DHT22;10115;50.906;4.438;2023-04-06T11:11:11;9.10;99.90
19906;DHT22;10115;50.906;4.438;2023-04-06T11:13:45;9.20;99.90
19906;DHT22;10115;50.906;4.438;2023-04-06T11:16:19;9.20;99.90
19906;DHT22;10115;50.906;4.438;2023-04-06T11:24:07;9.30;99.90
19906;DHT22;10115;50.906;4.438;2023-04-06T11:26:38;9.40;99.90
19906;DHT22;10115;50.906;4.438;2023-04-06T11:29:04;9.50;99.90
19906;DHT22;10115;50.906;4.438;2023-04-06T11:31:30;9.50;99.90
19906;DHT22;10115;50.906;4.438;2023-04-06T11:33:56;9.70;99.90
19906;DHT22;10115;50.906;4.438;2023-04-06T11:36:23;9.90;99.90
19906;DHT22;10115;50.906;4.438;2023-04-06T11:38:49;10.00;99.90
19906;DHT22;10115;50.906;4.438;2023-04-06T11:41:15;9.70;99.90
19906;DHT22;10115;50.906;4.438;2023-04-06T11:43:47;9.80;99.90
19906;DHT22;10115;50.906;4.438;2023-04-06T11:46:17;9.80;99.90
19906;DHT22;10115;50.906;4.438;2023-04-06T11:48:46;9.80;99.90
19906;DHT22;10115;50.906;4.438;2023-04-06T11:51:12;9.60;99.90
19906;DHT22;10115;50.906;4.438;2023-04-06T11:53:44;9.70;99.90
19906;DHT22;10115;50.906;4.438;2023-04-06T11:56:11;9.70;99.90
19906;DHT22;10115;50.906;4.438;2023-04-06T11:58:37;9.60;99.90
19906;DHT22;10115;50.906;4.438;2023-04-06T12:01:05;9.50;99.90
19906;DHT22;10115;50.906;4.438;2023-04-06T12:03:31;9.70;99.90
19906;DHT22;10115;50.906;4.438;2023-04-06T12:05:57;9.70;99.90
19906;DHT22;10115;50.906;4.438;2023-04-06T12:08:23;9.80;99.90
19906;DHT22;10115;50.906;4.438;2023-04-06T12:10:51;10.20;99.90
19906;DHT22;10115;50.906;4.438;2023-04-06T12:13:16;10.20;99.90
19906;DHT22;10115;50.906;4.438;2023-04-06T12:15:42;10.00;99.90
19906;DHT22;10115;50.906;4.438;2023-04-06T12:18:07;9.90;99.90
19906;DHT22;10115;50.906;4.438;2023-04-06T12:20:33;9.90;99.90
19906;DHT22;10115;50.906;4.438;2023-04-06T12:22:59;10.10;99.90
19906;DHT22;10115;50.906;4.438;2023-04-06T12:25:25;10.10;99.90
19906;DHT22;10115;50.906;4.438;2023-04-06T12:27:51;10.30;99.90
19906;DHT22;10115;50.906;4.438;2023-04-06T12:30:16;10.50;99.90
19906;DHT22;10115;50.906;4.438;2023-04-06T12:32:42;10.70;99.90
19906;DHT22;10115;50.906;4.438;2023-04-06T12:35:08;10.80;99.90
19906;DHT22;10115;50.906;4.438;2023-04-06T12:37:34;10.50;99.90
19906;DHT22;10115;50.906;4.438;2023-04-06T12:40:00;10.50;99.90
19906;DHT22;10115;50.906;4.438;2023-04-06T12:42:26;10.50;99.90
19906;DHT22;10115;50.906;4.438;2023-04-06T12:44:52;10.40;99.90
19906;DHT22;10115;50.906;4.438;2023-04-06T12:47:17;10.20;99.90
19906;DHT22;10115;50.906;4.438;2023-04-06T12:49:43;10.00;99.90
19906;DHT22;10115;50.906;4.438;2023-04-06T12:52:10;10.10;99.90
19906;DHT22;10115;50.906;4.438;2023-04-06T12:54:35;10.40;99.90
19906;DHT22;10115;50.906;4.438;2023-04-06T12:57:01;10.50;99.90
19906;DHT22;10115;50.906;4.438;2023-04-06T12:59:27;10.50;99.90
19906;DHT22;10115;50.906;4.438;2023-04-06T13:01:56;10.30;99.90
19906;DHT22;10115;50.906;4.438;2023-04-06T13:04:23;10.40;99.90
19906;DHT22;10115;50.906;4.438;2023-04-06T13:06:48;10.20;99.90
19906;DHT22;10115;50.906;4.438;2023-04-06T13:09:14;10.30;99.90
19906;DHT22;10115;50.906;4.438;2023-04-06T13:11:40;10.30;99.90
19906;DHT22;10115;50.906;4.438;2023-04-06T13:14:06;10.20;99.90
19906;DHT22;10115;50.906;4.438;2023-04-06T13:16:32;10.30;99.90
19906;DHT22;10115;50.906;4.438;2023-04-06T13:18:58;10.00;99.90
19906;DHT22;10115;50.906;4.438;2023-04-06T13:21:24;10.00;99.90
19906;DHT22;10115;50.906;4.438;2023-04-06T13:23:50;9.80;99.90
19906;DHT22;10115;50.906;4.438;2023-04-06T13:26:16;9.90;99.90
19906;DHT22;10115;50.906;4.438;2023-04-06T13:28:42;9.90;99.90
19906;DHT22;10115;50.906;4.438;2023-04-06T13:31:08;9.90;99.90
19906;DHT22;10115;50.906;4.438;2023-04-06T13:33:35;10.00;99.90
19906;DHT22;10115;50.906;4.438;2023-04-06T13:36:01;10.00;99.90
19906;DHT22;10115;50.906;4.438;2023-04-06T13:38:27;9.90;99.90
19906;DHT22;10115;50.906;4.438;2023-04-06T13:40:53;9.90;99.90
19906;DHT22;10115;50.906;4.438;2023-04-06T13:43:19;9.80;99.90
19906;DHT22;10115;50.906;4.438;2023-04-06T13:45:53;9.90;99.90
19906;DHT22;10115;50.906;4.438;2023-04-06T13:48:20;9.90;99.90
19906;DHT22;10115;50.906;4.438;2023-04-06T13:50:46;10.00;99.90
19906;DHT22;10115;50.906;4.438;2023-04-06T13:53:12;10.00;99.90
19906;DHT22;10115;50.906;4.438;2023-04-06T13:55:38;10.00;99.90
19906;DHT22;10115;50.906;4.438;2023-04-06T13:58:04;10.00;99.90
19906;DHT22;10115;50.906;4.438;2023-04-06T14:00:29;10.10;99.90
19906;DHT22;10115;50.906;4.438;2023-04-06T14:02:55;10.00;99.90
19906;DHT22;10115;50.906;4.438;2023-04-06T14:05:21;10.10;99.90
19906;DHT22;10115;50.906;4.438;2023-04-06T14:07:49;10.10;99.90
19906;DHT22;10115;50.906;4.438;2023-04-06T14:10:15;10.20;99.90
19906;DHT22;10115;50.906;4.438;2023-04-06T14:12:42;10.20;99.90
19906;DHT22;10115;50.906;4.438;2023-04-06T14:15:09;10.20;99.90
19906;DHT22;10115;50.906;4.438;2023-04-06T14:17:35;10.10;99.90
19906;DHT22;10115;50.906;4.438;2023-04-06T14:20:00;10.20;99.90
19906;DHT22;10115;50.906;4.438;2023-04-06T14:22:26;10.20;99.90
19906;DHT22;10115;50.906;4.438;2023-04-06T14:24:51;10.20;99.90
19906;DHT22;10115;50.906;4.438;2023-04-06T14:27:17;10.20;99.90
19906;DHT22;10115;50.906;4.438;2023-04-06T14:29:43;10.40;99.90
19906;DHT22;10115;50.906;4.438;2023-04-06T14:32:08;10.10;99.90
19906;DHT22;10115;50.906;4.438;2023-04-06T14:34:37;10.00;99.90
19906;DHT22;10115;50.906;4.438;2023-04-06T14:37:03;10.00;99.90
19906;DHT22;10115;50.906;4.438;2023-04-06T14:39:28;10.00;99.90
19906;DHT22;10115;50.906;4.438;2023-04-06T14:41:54;10.00;99.90
19906;DHT22;10115;50.906;4.438;2023-04-06T14:44:21;10.00;99.90
19906;DHT22;10115;50.906;4.438;2023-04-06T14:46:46;10.00;99.90
19906;DHT22;10115;50.906;4.438;2023-04-06T14:49:12;10.00;99.90
19906;DHT22;10115;50.906;4.438;2023-04-06T14:51:38;10.00;99.90
19906;DHT22;10115;50.906;4.438;2023-04-06T14:54:04;9.90;99.90
19906;DHT22;10115;50.906;4.438;2023-04-06T14:56:30;9.90;99.90
19906;DHT22;10115;50.906;4.438;2023-04-06T14:58:58;9.90;99.90
19906;DHT22;10115;50.906;4.438;2023-04-06T15:01:24;9.90;99.90
19906;DHT22;10115;50.906;4.438;2023-04-06T15:03:50;10.00;99.90
19906;DHT22;10115;50.906;4.438;2023-04-06T15:06:17;10.10;99.90
19906;DHT22;10115;50.906;4.438;2023-04-06T15:08:45;10.40;99.90
19906;DHT22;10115;50.906;4.438;2023-04-06T15:11:11;10.20;99.90
19906;DHT22;10115;50.906;4.438;2023-04-06T15:13:38;10.40;99.90
19906;DHT22;10115;50.906;4.438;2023-04-06T15:16:05;10.40;99.90
19906;DHT22;10115;50.906;4.438;2023-04-06T15:18:33;10.40;99.90
19906;DHT22;10115;50.906;4.438;2023-04-06T15:20:58;10.40;99.90
19906;DHT22;10115;50.906;4.438;2023-04-06T15:23:24;10.40;99.90
19906;DHT22;10115;50.906;4.438;2023-04-06T15:25:51;10.60;99.90
19906;DHT22;10115;50.906;4.438;2023-04-06T15:28:17;10.50;99.90
19906;DHT22;10115;50.906;4.438;2023-04-06T15:30:42;10.50;99.90
19906;DHT22;10115;50.906;4.438;2023-04-06T15:33:08;10.30;99.90
19906;DHT22;10115;50.906;4.438;2023-04-06T15:35:34;10.20;99.90
19906;DHT22;10115;50.906;4.438;2023-04-06T15:38:05;10.40;99.90
19906;DHT22;10115;50.906;4.438;2023-04-06T15:40:31;10.70;99.90
19906;DHT22;10115;50.906;4.438;2023-04-06T15:42:57;10.80;99.90
19906;DHT22;10115;50.906;4.438;2023-04-06T15:45:23;10.90;99.90
19906;DHT22;10115;50.906;4.438;2023-04-06T15:47:49;11.10;99.90